WC StCyr

Date de la prise de vue : 26/05/2022 13:57:40
N'ayant pas de Météo à StCyr, voilà le METAR et le TAF de Villacoublay :
2022/05/26 11:30 LFPV 261130Z AUTO 27006KT 230V310 9999 FEW023 BKN036 18/11 Q1026 NOSIG
2022/05/26 09:15 TAF LFPV 260800Z 2609/2709 30010KT 9999 FEW009 BKN015 BKN020 TX21/2615Z TN10/2704Z TEMPO 2609/2611 -DZRA BKN010 BECMG 2612/2614 SCT030 BECMG 2701/2703 OVC008